Time;durP1;ratioP1;P1;durP2;ratioP2;P2;SDS_P1;SDS_P2;PMS_P1;PMS_P2;Temp;Humidity;BMP_temperature;BMP_pressure;BME280_temperature;BME280_humidity;BME280_pressure;Samples;Min_cycle;Max_cycle;Signal;HPM_P1;HPM_P2
2023/01/09 00:01:40;;;;;;;4.22;1.58;;;9.90;99.90;;;;;;5013624;28;20447;-77
2023/01/09 00:04:07;;;;;;;1.58;1.40;;;9.90;99.90;;;;;;5011662;28;20411;-78
2023/01/09 00:06:33;;;;;;;2.67;1.30;;;9.90;99.90;;;;;;5012997;28;20026;-76
2023/01/09 00:08:59;;;;;;;4.10;1.20;;;9.90;99.90;;;;;;5013244;28;20026;-79
2023/01/09 00:11:24;;;;;;;3.83;1.20;;;10.10;99.90;;;;;;5012828;28;20456;-78
2023/01/09 00:13:50;;;;;;;3.17;1.35;;;9.90;99.90;;;;;;5013517;28;20448;-78
2023/01/09 00:16:16;;;;;;;3.70;1.30;;;9.80;99.90;;;;;;5014796;28;20029;-77
2023/01/09 00:18:42;;;;;;;2.90;1.10;;;9.80;99.90;;;;;;5014329;28;20514;-78
2023/01/09 00:21:10;;;;;;;5.10;1.48;;;9.80;99.90;;;;;;5016227;28;20030;-78
2023/01/09 00:23:35;;;;;;;5.97;1.33;;;9.80;99.90;;;;;;5014335;28;20057;-79
2023/01/09 00:26:16;;;;;;;4.60;1.48;;;9.80;99.90;;;;;;5015753;28;20042;-80
2023/01/09 00:28:43;;;;;;;2.15;1.10;;;9.80;99.90;;;;;;5016152;28;20065;-77
2023/01/09 00:31:09;;;;;;;2.35;1.17;;;9.80;99.90;;;;;;5015159;28;20029;-77
2023/01/09 00:33:41;;;;;;;2.58;1.10;;;9.80;99.90;;;;;;5015099;28;20030;-78
2023/01/09 00:36:08;;;;;;;3.33;1.38;;;9.70;99.90;;;;;;5015906;28;20029;-77
2023/01/09 00:38:36;;;;;;;3.95;1.27;;;9.70;99.90;;;;;;5017122;28;20067;-78
2023/01/09 00:41:09;;;;;;;2.05;1.20;;;9.80;99.90;;;;;;5014844;28;20473;-77
2023/01/09 00:43:39;;;;;;;1.58;1.15;;;9.80;99.90;;;;;;5015287;28;20046;-78
2023/01/09 00:46:06;;;;;;;2.97;1.30;;;9.80;99.90;;;;;;5017978;28;20102;-77
2023/01/09 00:48:36;;;;;;;2.78;1.05;;;9.80;99.90;;;;;;5016636;28;20040;-78
2023/01/09 00:51:02;;;;;;;0.80;0.80;;;9.80;99.90;;;;;;5013169;28;20030;-77
2023/01/09 00:53:31;;;;;;;1.30;0.93;;;9.90;99.90;;;;;;5011832;28;20034;-78
2023/01/09 00:56:03;;;;;;;7.07;1.13;;;9.90;99.90;;;;;;5011237;28;20037;-78
2023/01/09 00:58:31;;;;;;;4.45;1.20;;;9.90;99.90;;;;;;5012454;28;20033;-77
2023/01/09 01:00:56;;;;;;;3.03;1.02;;;9.90;99.90;;;;;;5012645;28;20096;-78
2023/01/09 01:03:22;;;;;;;2.45;0.75;;;9.90;99.90;;;;;;5012623;28;20034;-78
2023/01/09 01:08:32;;;;;;;1.92;0.98;;;9.90;99.90;;;;;;5012117;28;20084;-77
2023/01/09 01:11:02;;;;;;;5.05;1.10;;;9.90;99.90;;;;;;5011569;28;20026;-77
2023/01/09 01:13:28;;;;;;;1.92;0.65;;;9.90;99.90;;;;;;5011808;28;20037;-76
2023/01/09 01:15:53;;;;;;;3.85;1.00;;;9.90;99.90;;;;;;5011568;28;20399;-76
2023/01/09 01:18:19;;;;;;;2.72;1.15;;;10.00;99.90;;;;;;5011686;28;20030;-77
2023/01/09 01:20:45;;;;;;;6.30;1.65;;;9.90;99.90;;;;;;5012653;28;20126;-77
2023/01/09 01:23:11;;;;;;;4.15;1.10;;;9.90;99.90;;;;;;5010619;28;20057;-77
2023/01/09 01:25:41;;;;;;;2.00;0.98;;;9.90;99.90;;;;;;5010769;28;20050;-78
2023/01/09 01:28:07;;;;;;;3.15;1.13;;;10.00;99.90;;;;;;5010688;28;20064;-80
2023/01/09 01:30:40;;;;;;;2.13;0.75;;;10.00;99.90;;;;;;5011535;28;20026;-76
2023/01/09 01:33:07;;;;;;;1.38;0.80;;;9.90;99.90;;;;;;5010905;28;20030;-78
2023/01/09 01:35:33;;;;;;;2.28;0.70;;;10.00;99.90;;;;;;5011790;28;20030;-75
2023/01/09 01:37:59;;;;;;;3.10;0.65;;;10.00;99.90;;;;;;5011695;28;20152;-77
2023/01/09 01:40:25;;;;;;;0.85;0.60;;;10.00;99.90;;;;;;5011823;28;20465;-76
2023/01/09 01:42:53;;;;;;;3.50;0.57;;;9.90;99.90;;;;;;5010481;28;20060;-76
2023/01/09 01:45:27;;;;;;;4.53;0.70;;;9.90;99.90;;;;;;5011448;28;20113;-77
2023/01/09 01:47:59;;;;;;;1.25;0.60;;;9.90;99.90;;;;;;5012183;28;20030;-77
2023/01/09 01:50:32;;;;;;;1.77;0.73;;;9.90;99.90;;;;;;5011893;28;20030;-77
2023/01/09 01:53:13;;;;;;;4.05;0.90;;;10.10;99.90;;;;;;5011840;28;20022;-76
2023/01/09 01:55:45;;;;;;;0.60;0.60;;;10.00;99.90;;;;;;5010439;28;20040;-77
2023/01/09 01:58:15;;;;;;;2.72;0.82;;;10.00;99.90;;;;;;5010489;28;20096;-76
2023/01/09 02:00:44;;;;;;;1.95;0.70;;;9.90;99.90;;;;;;5011490;28;20057;-77
2023/01/09 02:03:11;;;;;;;2.28;0.70;;;9.90;99.90;;;;;;5011422;28;20563;-77
2023/01/09 02:05:38;;;;;;;1.90;0.75;;;9.90;99.90;;;;;;5011969;28;20122;-78
2023/01/09 02:08:05;;;;;;;1.75;0.80;;;9.90;99.90;;;;;;5011635;28;20026;-78
2023/01/09 02:10:32;;;;;;;2.50;0.83;;;9.90;99.90;;;;;;5011776;28;20034;-76
2023/01/09 02:12:59;;;;;;;5.20;0.73;;;9.90;99.90;;;;;;5010819;28;20348;-79
2023/01/09 02:15:29;;;;;;;2.08;0.77;;;9.90;99.90;;;;;;5011746;28;20030;-77
2023/01/09 02:18:37;;;;;;;1.35;0.73;;;9.90;99.90;;;;;;5010997;28;20128;-77
2023/01/09 02:21:22;;;;;;;2.97;0.90;;;9.90;99.90;;;;;;5010152;28;20118;-78
2023/01/09 02:23:57;;;;;;;1.50;0.63;;;9.80;99.90;;;;;;5006534;28;20062;-76
2023/01/09 02:26:32;;;;;;;1.88;0.65;;;9.70;99.90;;;;;;5009158;28;20042;-77
2023/01/09 02:29:16;;;;;;;1.35;0.55;;;9.90;99.90;;;;;;5013943;28;20113;-78
2023/01/09 02:32:06;;;;;;;4.47;1.00;;;9.80;99.90;;;;;;5014840;28;20027;-77
2023/01/09 02:35:04;;;;;;;1.70;0.75;;;9.80;99.90;;;;;;5013989;28;20093;-76
2023/01/09 02:38:01;;;;;;;8.88;1.17;;;9.80;99.90;;;;;;5013791;28;20495;-77
2023/01/09 02:40:43;;;;;;;6.67;0.90;;;9.70;99.90;;;;;;5015124;28;20034;-76
2023/01/09 02:43:10;;;;;;;1.35;0.82;;;9.80;99.90;;;;;;5014753;28;20037;-77
2023/01/09 02:45:36;;;;;;;3.07;1.17;;;9.90;99.90;;;;;;5013474;28;20030;-77
2023/01/09 02:48:01;;;;;;;1.58;1.00;;;9.80;99.90;;;;;;5015366;28;20756;-78
2023/01/09 02:50:35;;;;;;;1.48;0.88;;;9.80;99.90;;;;;;5014846;28;20053;-77
2023/01/09 02:53:16;;;;;;;1.67;0.73;;;9.70;99.90;;;;;;5014893;28;20061;-76
2023/01/09 02:56:02;;;;;;;2.03;0.80;;;9.70;99.90;;;;;;5014732;28;20022;-77
2023/01/09 02:58:39;;;;;;;3.42;1.10;;;9.80;99.90;;;;;;5013392;28;20045;-77
2023/01/09 03:01:23;;;;;;;0.82;0.65;;;9.70;99.90;;;;;;5014354;28;20112;-78
2023/01/09 03:04:11;;;;;;;1.35;0.90;;;9.70;99.90;;;;;;5014263;28;20112;-77
2023/01/09 03:07:07;;;;;;;4.38;1.10;;;9.70;99.90;;;;;;5014275;28;20058;-76
2023/01/09 03:09:37;;;;;;;2.08;0.75;;;9.70;99.90;;;;;;5014053;28;20482;-76
2023/01/09 03:12:10;;;;;;;3.42;0.90;;;9.70;99.90;;;;;;5013490;28;20045;-77
2023/01/09 03:14:39;;;;;;;1.50;0.73;;;9.70;99.90;;;;;;5014210;28;20041;-77
2023/01/09 03:17:10;;;;;;;1.58;1.05;;;9.80;99.90;;;;;;5014073;28;20088;-77
2023/01/09 03:19:37;;;;;;;1.75;0.90;;;9.70;99.90;;;;;;5013881;28;20416;-77
2023/01/09 03:22:03;;;;;;;1.70;0.83;;;9.60;99.90;;;;;;5014191;28;20032;-77
2023/01/09 03:24:29;;;;;;;3.33;1.00;;;9.60;99.90;;;;;;5013672;28;20042;-77
2023/01/09 03:26:55;;;;;;;60.55;28.83;;;9.70;99.90;;;;;;5012938;28;20044;-77
2023/01/09 03:29:21;;;;;;;46.67;23.73;;;9.60;99.90;;;;;;5013833;28;20030;-76
2023/01/09 03:31:46;;;;;;;6.43;1.92;;;9.80;99.90;;;;;;5012588;28;20026;-77
2023/01/09 03:34:12;;;;;;;3.08;0.88;;;9.70;99.90;;;;;;5013768;28;20424;-77
2023/01/09 03:36:38;;;;;;;3.30;1.35;;;9.80;99.90;;;;;;5012519;28;20037;-76
2023/01/09 03:39:03;;;;;;;1.17;0.93;;;9.60;99.90;;;;;;5012880;28;20444;-76
2023/01/09 03:41:29;;;;;;;2.15;1.13;;;9.70;99.90;;;;;;5012481;28;20456;-76
2023/01/09 03:43:55;;;;;;;1.95;0.95;;;9.70;99.90;;;;;;5011906;28;20038;-78
2023/01/09 03:46:20;;;;;;;3.22;1.23;;;9.60;99.90;;;;;;5012799;28;20030;-78
2023/01/09 03:48:46;;;;;;;2.17;0.93;;;9.60;99.90;;;;;;5012036;28;20088;-76
2023/01/09 03:51:12;;;;;;;2.05;0.82;;;9.60;99.90;;;;;;5012870;28;20458;-77
2023/01/09 03:53:38;;;;;;;4.13;1.08;;;9.60;99.90;;;;;;5013373;28;20037;-78
2023/01/09 03:56:03;;;;;;;2.67;1.13;;;9.70;99.90;;;;;;5012935;28;20045;-77
2023/01/09 03:58:29;;;;;;;1.08;0.80;;;9.60;99.90;;;;;;5012841;28;20058;-78
2023/01/09 04:01:00;;;;;;;4.88;0.82;;;9.60;99.90;;;;;;5012890;28;20042;-77
2023/01/09 04:03:26;;;;;;;0.77;0.70;;;9.70;99.90;;;;;;5011526;28;20038;-77
2023/01/09 04:05:52;;;;;;;1.25;0.75;;;9.60;99.90;;;;;;5012939;28;20088;-76
2023/01/09 04:08:18;;;;;;;1.85;0.85;;;9.60;99.90;;;;;;5011541;28;20443;-77
2023/01/09 04:10:48;;;;;;;2.88;1.00;;;9.60;99.90;;;;;;5011842;28;20026;-78
2023/01/09 04:13:14;;;;;;;3.72;1.23;;;9.60;99.90;;;;;;5011680;28;20026;-77
2023/01/09 04:15:40;;;;;;;3.00;0.82;;;9.60;99.90;;;;;;5012499;28;20033;-77
2023/01/09 04:18:05;;;;;;;2.13;0.70;;;9.60;99.90;;;;;;5012935;28;20092;-77
2023/01/09 04:20:31;;;;;;;2.58;0.98;;;9.60;99.90;;;;;;5012125;28;20030;-77
2023/01/09 04:22:58;;;;;;;1.63;0.80;;;9.60;99.90;;;;;;5012400;28;20026;-77
2023/01/09 04:25:24;;;;;;;2.97;1.00;;;9.70;99.90;;;;;;5011174;28;20049;-77
2023/01/09 04:27:50;;;;;;;0.82;0.65;;;9.70;99.90;;;;;;5011205;28;20116;-77
2023/01/09 04:30:16;;;;;;;1.13;0.80;;;9.70;99.90;;;;;;5012347;28;20168;-77
2023/01/09 04:32:42;;;;;;;0.88;0.82;;;9.70;99.90;;;;;;5011428;28;20034;-76
2023/01/09 04:35:08;;;;;;;1.00;0.70;;;9.80;99.90;;;;;;5011515;28;20038;-76
2023/01/09 04:37:35;;;;;;;2.35;0.95;;;9.80;99.90;;;;;;5011442;28;20030;-76
2023/01/09 04:40:06;;;;;;;2.17;1.05;;;9.80;99.90;;;;;;5011204;28;20312;-78
2023/01/09 04:42:32;;;;;;;0.77;0.52;;;9.80;99.90;;;;;;5012201;28;20021;-77
2023/01/09 04:44:58;;;;;;;2.83;0.88;;;9.80;99.90;;;;;;5012473;28;20040;-78
2023/01/09 04:47:23;;;;;;;1.55;0.80;;;9.90;99.90;;;;;;5011040;28;20092;-77
2023/01/09 04:49:49;;;;;;;1.20;0.82;;;10.00;99.90;;;;;;5010252;28;20092;-77
2023/01/09 04:52:15;;;;;;;2.28;0.82;;;9.90;99.90;;;;;;5012068;28;20129;-77
2023/01/09 04:54:40;;;;;;;1.10;0.60;;;9.90;99.90;;;;;;5011821;28;20133;-78
2023/01/09 04:57:06;;;;;;;1.85;0.73;;;9.90;99.90;;;;;;5012403;28;20061;-77
2023/01/09 04:59:32;;;;;;;1.50;0.50;;;10.00;99.90;;;;;;5011832;28;20034;-77
2023/01/09 05:01:58;;;;;;;3.50;0.75;;;9.90;99.90;;;;;;5011940;28;20479;-77
2023/01/09 05:04:24;;;;;;;1.08;0.50;;;10.00;99.90;;;;;;5010866;28;20096;-78
2023/01/09 05:06:50;;;;;;;0.65;0.35;;;9.90;99.90;;;;;;5011852;28;20040;-78
2023/01/09 05:09:16;;;;;;;0.68;0.45;;;9.90;99.90;;;;;;5011808;28;20018;-76
2023/01/09 05:11:41;;;;;;;0.70;0.43;;;10.00;99.90;;;;;;5012422;28;20018;-77
2023/01/09 05:14:07;;;;;;;0.73;0.40;;;9.90;99.90;;;;;;5011910;28;20425;-77
2023/01/09 05:16:33;;;;;;;0.45;0.32;;;9.90;99.90;;;;;;5012077;28;20022;-77
2023/01/09 05:18:59;;;;;;;0.55;0.20;;;9.90;99.90;;;;;;5011815;28;20117;-77
2023/01/09 05:21:25;;;;;;;1.15;0.20;;;9.90;99.90;;;;;;5010666;28;20033;-77
2023/01/09 05:23:51;;;;;;;0.55;0.50;;;10.00;99.90;;;;;;5011914;28;20045;-77
2023/01/09 05:26:18;;;;;;;1.95;0.40;;;9.90;99.90;;;;;;5010381;28;20038;-77
2023/01/09 05:28:44;;;;;;;0.38;0.35;;;9.80;99.90;;;;;;5011428;28;20091;-78
2023/01/09 05:31:09;;;;;;;0.45;0.32;;;9.80;99.90;;;;;;5011243;28;20033;-77
2023/01/09 05:33:35;;;;;;;0.30;0.30;;;9.80;99.90;;;;;;5011357;28;20034;-77
2023/01/09 05:36:00;;;;;;;0.88;0.50;;;9.80;99.90;;;;;;5010590;28;20037;-78
2023/01/09 05:38:26;;;;;;;0.30;0.30;;;9.70;99.90;;;;;;5010807;28;20026;-78
2023/01/09 05:40:52;;;;;;;0.50;0.50;;;9.70;99.90;;;;;;5010618;28;20119;-80
2023/01/09 05:43:17;;;;;;;0.90;0.50;;;9.80;99.90;;;;;;5011281;28;20030;-78
2023/01/09 05:45:43;;;;;;;0.82;0.60;;;9.70;99.90;;;;;;5011072;28;20088;-78
2023/01/09 05:48:09;;;;;;;1.25;0.70;;;9.70;99.90;;;;;;5010709;28;20033;-78
2023/01/09 05:50:34;;;;;;;0.80;0.80;;;9.70;99.90;;;;;;5011364;28;20038;-77
2023/01/09 05:53:00;;;;;;;1.25;0.73;;;9.80;99.90;;;;;;5011490;28;20034;-78
2023/01/09 05:55:26;;;;;;;0.70;0.70;;;9.60;99.90;;;;;;5011344;28;20068;-78
2023/01/09 05:57:51;;;;;;;1.00;0.77;;;9.60;99.90;;;;;;5011055;28;20030;-77
2023/01/09 06:00:17;;;;;;;2.33;0.95;;;9.60;99.90;;;;;;5011147;28;20108;-77
2023/01/09 06:02:43;;;;;;;3.20;1.02;;;9.60;99.90;;;;;;5014792;28;20053;-78
2023/01/09 06:05:09;;;;;;;2.45;0.93;;;9.70;99.90;;;;;;5015244;28;20160;-78
2023/01/09 06:07:38;;;;;;;1.17;0.90;;;9.70;99.90;;;;;;5015323;28;20042;-77
2023/01/09 06:10:04;;;;;;;0.98;0.80;;;9.80;99.90;;;;;;5015064;28;20092;-78
2023/01/09 06:12:29;;;;;;;1.15;1.02;;;9.70;99.90;;;;;;5015360;28;20026;-77
2023/01/09 06:14:55;;;;;;;1.90;1.15;;;9.60;99.90;;;;;;5015264;28;20037;-77
2023/01/09 06:17:22;;;;;;;1.75;1.40;;;9.60;99.90;;;;;;5014068;28;20034;-77
2023/01/09 06:19:47;;;;;;;2.60;1.42;;;9.80;99.90;;;;;;5013610;28;20487;-77
2023/01/09 06:22:13;;;;;;;2.08;1.50;;;9.80;99.90;;;;;;5013802;28;20065;-78
2023/01/09 06:24:39;;;;;;;2.03;1.25;;;9.80;99.90;;;;;;5014809;28;20061;-77
2023/01/09 06:27:05;;;;;;;2.75;1.60;;;9.80;99.90;;;;;;5019536;28;20029;-77
2023/01/09 06:29:31;;;;;;;3.05;1.40;;;9.80;99.90;;;;;;5034700;28;20471;-75
2023/01/09 06:31:56;;;;;;;2.80;1.42;;;9.80;99.90;;;;;;5034727;28;20120;-78
2023/01/09 06:34:22;;;;;;;3.90;1.48;;;9.80;99.90;;;;;;5034811;28;20036;-76
2023/01/09 06:36:48;;;;;;;1.90;1.52;;;9.70;99.90;;;;;;5033147;28;20021;-77
2023/01/09 06:39:13;;;;;;;2.25;1.70;;;9.70;99.90;;;;;;5034382;28;20337;-78
2023/01/09 06:41:39;;;;;;;3.13;1.48;;;9.70;99.90;;;;;;5034629;28;20032;-78
2023/01/09 06:44:05;;;;;;;3.15;2.05;;;9.80;99.90;;;;;;5034225;28;20040;-75
2023/01/09 06:46:30;;;;;;;1.50;1.40;;;9.70;99.90;;;;;;5033976;28;20466;-76
2023/01/09 06:48:56;;;;;;;1.90;1.63;;;9.70;99.90;;;;;;5033908;28;20040;-77
2023/01/09 06:51:21;;;;;;;3.17;1.88;;;9.70;99.90;;;;;;5033786;28;20247;-77
2023/01/09 06:53:47;;;;;;;3.42;2.50;;;9.80;99.90;;;;;;5032736;28;20014;-77
2023/01/09 06:56:13;;;;;;;3.85;2.20;;;10.00;99.90;;;;;;5014062;28;20051;-77
2023/01/09 06:58:38;;;;;;;2.63;2.25;;;10.00;99.90;;;;;;5014002;28;20487;-78
2023/01/09 07:01:04;;;;;;;8.35;2.90;;;9.80;99.90;;;;;;5014106;28;20040;-78
2023/01/09 07:03:30;;;;;;;7.65;2.50;;;9.70;99.90;;;;;;5012074;28;20595;-77
2023/01/09 07:05:55;;;;;;;10.15;2.95;;;9.70;99.90;;;;;;5013474;28;20034;-77
2023/01/09 07:08:21;;;;;;;3.53;2.60;;;9.80;99.90;;;;;;5013431;28;20030;-74
2023/01/09 07:10:47;;;;;;;5.25;3.00;;;9.70;99.90;;;;;;5012776;28;20345;-76
2023/01/09 07:13:12;;;;;;;5.80;2.90;;;9.70;99.90;;;;;;5013171;28;20448;-72
2023/01/09 07:15:38;;;;;;;4.20;2.70;;;9.60;99.90;;;;;;5012134;28;20452;-74
2023/01/09 07:18:04;;;;;;;10.60;3.88;;;9.50;99.90;;;;;;5012647;28;20312;-73
2023/01/09 07:20:29;;;;;;;8.88;3.95;;;9.30;99.90;;;;;;5013986;28;20113;-74
2023/01/09 07:22:56;;;;;;;8.43;3.67;;;9.30;99.90;;;;;;5013522;28;20464;-75
2023/01/09 07:25:22;;;;;;;5.78;3.17;;;9.40;99.90;;;;;;5013259;28;20052;-75
2023/01/09 07:27:47;;;;;;;5.85;3.03;;;9.30;99.90;;;;;;5013123;28;20440;-74
2023/01/09 07:30:13;;;;;;;5.50;3.10;;;9.20;99.90;;;;;;5012128;28;20084;-75
2023/01/09 07:32:39;;;;;;;10.25;3.60;;;9.30;99.90;;;;;;5013389;28;20026;-72
2023/01/09 07:35:09;;;;;;;9.65;3.70;;;9.30;99.90;;;;;;5012957;28;20042;-74
2023/01/09 07:37:35;;;;;;;5.97;3.65;;;9.20;99.90;;;;;;5012082;28;20085;-72
2023/01/09 07:40:02;;;;;;;6.70;3.88;;;9.20;99.90;;;;;;5012710;28;20553;-73
2023/01/09 07:42:28;;;;;;;6.72;3.38;;;9.40;99.90;;;;;;5012722;28;20013;-76
2023/01/09 07:44:53;;;;;;;5.82;3.75;;;9.20;99.90;;;;;;5012109;28;20091;-74
2023/01/09 07:47:19;;;;;;;6.07;3.58;;;9.20;99.90;;;;;;5011759;28;20033;-76
2023/01/09 07:49:45;;;;;;;10.00;3.65;;;9.20;99.90;;;;;;5012421;28;20034;-74
2023/01/09 07:52:10;;;;;;;9.02;3.90;;;9.10;99.90;;;;;;5011703;28;20064;-73
2023/01/09 07:54:36;;;;;;;7.63;4.30;;;9.20;99.90;;;;;;5012425;28;20029;-77
2023/01/09 07:57:01;;;;;;;11.55;5.45;;;9.20;99.90;;;;;;5011625;28;20116;-74
2023/01/09 07:59:28;;;;;;;10.82;4.57;;;9.20;99.90;;;;;;5012352;28;20165;-76
2023/01/09 08:01:54;;;;;;;6.32;4.60;;;9.10;99.90;;;;;;5011019;28;20368;-75
2023/01/09 08:04:21;;;;;;;9.32;5.30;;;9.10;99.90;;;;;;5011090;28;20034;-73
2023/01/09 08:06:46;;;;;;;9.68;4.65;;;9.10;99.90;;;;;;5012125;28;20256;-74
2023/01/09 08:09:12;;;;;;;13.70;6.65;;;9.10;99.90;;;;;;5012096;28;20079;-73
2023/01/09 08:11:38;;;;;;;11.50;5.45;;;9.20;99.90;;;;;;5012491;28;20041;-78
2023/01/09 08:14:04;;;;;;;11.98;6.13;;;9.10;99.90;;;;;;5010753;28;20113;-74
2023/01/09 08:16:29;;;;;;;13.93;5.88;;;9.10;99.90;;;;;;5011819;28;20304;-74
2023/01/09 08:18:55;;;;;;;11.98;5.88;;;9.20;99.90;;;;;;5012144;28;20032;-75
2023/01/09 08:21:21;;;;;;;11.18;5.63;;;9.20;99.90;;;;;;5011811;28;20464;-74
2023/01/09 08:23:46;;;;;;;11.75;5.60;;;9.30;99.90;;;;;;5012068;28;20364;-74
2023/01/09 08:26:12;;;;;;;15.15;6.65;;;9.10;99.90;;;;;;5010869;28;20417;-75
2023/01/09 08:28:38;;;;;;;13.20;6.00;;;9.20;99.90;;;;;;5011935;28;20088;-73
2023/01/09 08:31:03;;;;;;;12.18;6.20;;;9.30;99.90;;;;;;5010541;28;20143;-74
2023/01/09 08:33:31;;;;;;;10.27;6.07;;;9.20;99.90;;;;;;5011865;28;20022;-74
2023/01/09 08:35:57;;;;;;;17.67;6.45;;;9.30;99.90;;;;;;5012399;28;20084;-72
2023/01/09 08:38:23;;;;;;;10.82;6.30;;;9.20;99.90;;;;;;5011820;28;20026;-74
2023/01/09 08:40:48;;;;;;;13.45;7.43;;;9.20;99.90;;;;;;5011559;28;20113;-72
2023/01/09 08:48:43;;;;;;;10.55;5.15;;;9.20;99.90;;;;;;5011817;28;20518;-75
2023/01/09 08:51:10;;;;;;;7.20;4.20;;;9.10;99.90;;;;;;5011904;28;20029;-73
2023/01/09 08:53:35;;;;;;;9.93;4.68;;;9.20;99.90;;;;;;5010328;28;20042;-73
2023/01/09 08:56:02;;;;;;;13.90;4.63;;;9.30;99.90;;;;;;5010298;28;20095;-73
2023/01/09 08:58:29;;;;;;;10.55;3.88;;;9.30;99.90;;;;;;5010231;28;20456;-73
2023/01/09 09:00:54;;;;;;;9.05;4.10;;;9.50;99.90;;;;;;5011024;28;20034;-74
2023/01/09 09:03:20;;;;;;;14.52;4.45;;;9.60;99.90;;;;;;5011149;28;20502;-74
2023/01/09 09:05:46;;;;;;;15.60;3.85;;;9.70;99.90;;;;;;5010078;28;20108;-73
2023/01/09 09:08:12;;;;;;;10.23;3.78;;;9.70;99.90;;;;;;5010873;28;20453;-73
2023/01/09 09:10:38;;;;;;;10.93;4.10;;;9.70;99.90;;;;;;5011171;28;20053;-74
2023/01/09 09:13:04;;;;;;;7.10;3.40;;;9.70;99.90;;;;;;5009804;28;20030;-76
2023/01/09 09:15:29;;;;;;;10.27;4.63;;;9.80;99.90;;;;;;5010291;28;20074;-75
2023/01/09 09:17:58;;;;;;;15.02;6.32;;;9.80;99.90;;;;;;5011512;28;20029;-73
2023/01/09 09:20:26;;;;;;;11.38;3.90;;;9.80;99.90;;;;;;5010557;28;20091;-71
2023/01/09 09:22:52;;;;;;;10.45;3.05;;;9.90;99.90;;;;;;5010755;28;20507;-72
2023/01/09 09:25:19;;;;;;;11.30;3.67;;;10.00;99.90;;;;;;5009201;28;20372;-75
2023/01/09 09:27:48;;;;;;;12.80;3.33;;;10.10;99.90;;;;;;5010957;28;20369;-73
2023/01/09 09:30:16;;;;;;;11.02;2.70;;;10.00;99.90;;;;;;5010528;28;20022;-75
2023/01/09 09:32:41;;;;;;;10.32;3.25;;;10.10;99.90;;;;;;5011100;28;20018;-75
2023/01/09 09:35:07;;;;;;;8.80;2.92;;;10.10;99.90;;;;;;5002224;28;20061;-74
2023/01/09 09:37:33;;;;;;;3.55;1.90;;;10.20;99.90;;;;;;5010448;28;20026;-72
2023/01/09 09:39:59;;;;;;;16.42;3.10;;;10.40;99.90;;;;;;5010887;28;20364;-72
2023/01/09 09:45:55;;;;;;;4.20;1.60;;;10.30;99.90;;;;;;5010803;28;20375;-73
2023/01/09 09:48:43;;;;;;;8.60;1.65;;;10.20;99.90;;;;;;5009418;28;20026;-69
2023/01/09 09:51:36;;;;;;;4.50;1.63;;;10.30;99.90;;;;;;5010810;28;20036;-72
2023/01/09 09:54:19;;;;;;;10.85;2.30;;;10.30;99.90;;;;;;5010669;28;20102;-72
2023/01/09 09:56:55;;;;;;;9.68;2.35;;;10.30;99.90;;;;;;5011218;28;20030;-70
2023/01/09 09:59:24;;;;;;;7.40;1.83;;;10.30;99.90;;;;;;5011014;28;20026;-73
2023/01/09 10:02:01;;;;;;;7.60;1.70;;;10.40;99.90;;;;;;5010778;28;20034;-73
2023/01/09 10:04:31;;;;;;;12.57;1.98;;;10.40;99.70;;;;;;5010396;28;20038;-73
2023/01/09 10:07:04;;;;;;;4.30;1.70;;;10.40;99.90;;;;;;5010493;28;20037;-72
2023/01/09 10:09:47;;;;;;;9.02;1.80;;;10.40;99.90;;;;;;5010410;28;20175;-72
2023/01/09 10:12:52;;;;;;;3.67;1.55;;;10.30;99.90;;;;;;5010328;28;20052;-72
2023/01/09 10:15:27;;;;;;;4.30;1.33;;;10.20;99.90;;;;;;5009141;28;20048;-72
2023/01/09 10:18:23;;;;;;;3.90;1.15;;;10.20;99.90;;;;;;5010925;28;20018;-73
2023/01/09 10:20:54;;;;;;;2.05;0.85;;;10.10;99.90;;;;;;5010357;28;20038;-73
2023/01/09 10:23:28;;;;;;;4.47;1.60;;;10.20;99.90;;;;;;5008795;28;20027;-75
2023/01/09 10:26:09;;;;;;;6.13;1.50;;;10.10;99.90;;;;;;5009995;28;20333;-73
2023/01/09 10:29:08;;;;;;;3.78;1.05;;;10.00;99.90;;;;;;5010212;28;20033;-73
2023/01/09 10:31:39;;;;;;;7.28;1.17;;;10.00;99.90;;;;;;5010178;28;20045;-73
2023/01/09 10:34:12;;;;;;;2.92;1.10;;;10.10;99.90;;;;;;5010480;28;20034;-73
2023/01/09 10:36:58;;;;;;;4.10;1.27;;;10.00;99.80;;;;;;5008902;28;20049;-73
2023/01/09 10:39:59;;;;;;;5.22;1.98;;;10.10;99.90;;;;;;5010125;28;20030;-71
2023/01/09 10:42:38;;;;;;;6.90;1.27;;;10.10;99.90;;;;;;5008892;28;20046;-72
2023/01/09 10:45:13;;;;;;;7.30;1.35;;;10.20;99.90;;;;;;5009405;28;20030;-73
2023/01/09 10:47:42;;;;;;;10.55;1.60;;;10.20;99.90;;;;;;5010250;28;20208;-73
2023/01/09 10:50:26;;;;;;;4.55;1.15;;;10.10;99.90;;;;;;5013367;28;20122;-72
2023/01/09 10:52:54;;;;;;;8.50;1.20;;;10.10;99.90;;;;;;5013781;28;20033;-74
2023/01/09 10:55:43;;;;;;;6.15;1.33;;;10.10;99.70;;;;;;5013699;28;20114;-72
2023/01/09 10:58:13;;;;;;;5.78;1.40;;;10.00;99.70;;;;;;5013334;28;20032;-73
2023/01/09 11:00:40;;;;;;;3.03;1.10;;;10.10;99.70;;;;;;5013320;28;20356;-71
2023/01/09 11:03:13;;;;;;;7.30;1.27;;;10.10;99.80;;;;;;5012813;28;20472;-72
2023/01/09 11:05:38;;;;;;;2.45;0.85;;;10.00;99.80;;;;;;5013569;28;20042;-72
2023/01/09 11:08:07;;;;;;;4.00;0.98;;;10.00;99.80;;;;;;5013284;28;20026;-73
2023/01/09 11:10:54;;;;;;;6.20;1.40;;;10.00;99.80;;;;;;5013071;28;20037;-74
2023/01/09 11:13:31;;;;;;;6.43;1.08;;;10.10;99.90;;;;;;5012196;28;20033;-73
2023/01/09 11:16:20;;;;;;;4.60;1.13;;;10.10;99.60;;;;;;5012075;28;20041;-74
2023/01/09 11:18:58;;;;;;;4.00;0.80;;;10.10;99.50;;;;;;5012905;28;20263;-72
2023/01/09 11:21:24;;;;;;;3.15;1.08;;;10.10;99.60;;;;;;5013034;28;20024;-73
2023/01/09 11:23:49;;;;;;;5.47;1.00;;;10.20;99.40;;;;;;5013082;28;20105;-72
2023/01/09 11:26:26;;;;;;;8.77;1.17;;;10.20;99.70;;;;;;5012581;28;20050;-72
2023/01/09 11:29:12;;;;;;;4.03;0.95;;;10.20;99.70;;;;;;5013085;28;20044;-72
2023/01/09 11:31:40;;;;;;;6.57;1.20;;;10.20;99.30;;;;;;5012941;28;20294;-73
2023/01/09 11:34:22;;;;;;;8.40;1.10;;;10.20;99.50;;;;;;5012875;28;20494;-73
2023/01/09 11:36:49;;;;;;;4.30;0.90;;;10.20;99.50;;;;;;5013053;28;20026;-73
2023/01/09 11:39:27;;;;;;;7.25;1.20;;;10.20;99.50;;;;;;5012970;28;20034;-74
2023/01/09 11:41:59;;;;;;;;;;;10.20;99.60;;;;;;5013879;28;20381;-72
2023/01/09 11:44:26;;;;;;;4.30;1.00;;;10.20;99.20;;;;;;5012652;28;20004;-73
2023/01/09 11:46:52;;;;;;;4.07;1.15;;;10.30;99.40;;;;;;5013053;28;20034;-73
2023/01/09 11:49:23;;;;;;;6.97;1.05;;;10.40;99.40;;;;;;5012950;28;20034;-74
2023/01/09 11:52:10;;;;;;;4.05;1.20;;;10.40;99.40;;;;;;5011610;28;20060;-74
2023/01/09 11:54:40;;;;;;;4.68;1.10;;;10.40;99.70;;;;;;5011468;28;20026;-75
2023/01/09 11:57:12;;;;;;;3.33;0.75;;;10.50;99.30;;;;;;5013221;28;20030;-76
2023/01/09 11:59:38;;;;;;;3.30;0.77;;;10.60;99.10;;;;;;5012682;28;20041;-77
2023/01/09 12:02:32;;;;;;;3.35;0.80;;;10.50;99.00;;;;;;5012554;28;20084;-73
2023/01/09 12:05:13;;;;;;;8.00;1.00;;;10.60;99.10;;;;;;5011096;28;20030;-73
2023/01/09 12:08:09;;;;;;;3.28;0.65;;;10.60;98.90;;;;;;5012192;28;20034;-76
2023/01/09 12:10:38;;;;;;;5.70;1.15;;;10.70;99.00;;;;;;5012088;28;20095;-72
2023/01/09 12:13:38;;;;;;;2.25;1.00;;;10.70;99.00;;;;;;5012340;28;20057;-75
2023/01/09 12:16:25;;;;;;;6.25;0.95;;;10.70;99.10;;;;;;5011413;28;20383;-74
2023/01/09 12:19:14;;;;;;;2.10;0.90;;;10.80;98.90;;;;;;5010939;28;20034;-73
2023/01/09 12:21:47;;;;;;;2.35;0.73;;;10.80;98.80;;;;;;5012418;28;20034;-75
2023/01/09 12:24:47;;;;;;;6.82;1.02;;;10.90;98.80;;;;;;5011860;28;20034;-76
2023/01/09 12:27:37;;;;;;;4.75;0.98;;;10.90;99.00;;;;;;5011877;28;20037;-75
2023/01/09 12:30:09;;;;;;;4.65;0.65;;;11.00;98.80;;;;;;5012383;28;20114;-72
2023/01/09 12:32:49;;;;;;;3.42;0.90;;;10.80;98.60;;;;;;5012080;28;20022;-75
2023/01/09 12:35:39;;;;;;;2.75;0.80;;;10.90;98.50;;;;;;5012157;28;20104;-70
2023/01/09 12:38:11;;;;;;;3.65;0.70;;;10.90;98.50;;;;;;5010741;28;20034;-73
2023/01/09 12:41:04;;;;;;;4.22;1.90;;;10.80;98.60;;;;;;5011722;28;20478;-74
2023/01/09 12:43:33;;;;;;;6.50;1.40;;;10.80;98.60;;;;;;5010571;28;20041;-72
2023/01/09 12:46:19;;;;;;;2.08;0.90;;;10.80;98.40;;;;;;5010533;28;20121;-73
2023/01/09 12:49:25;;;;;;;5.28;1.00;;;10.90;98.60;;;;;;5011468;28;20117;-71
2023/01/09 12:51:59;;;;;;;4.45;1.27;;;10.80;98.30;;;;;;5011606;28;20037;-73
2023/01/09 12:54:44;;;;;;;3.20;1.00;;;10.90;98.40;;;;;;5011767;28;20483;-73
2023/01/09 12:57:14;;;;;;;1.13;0.60;;;10.90;98.40;;;;;;5012150;28;20041;-73
2023/01/09 12:59:46;;;;;;;3.13;1.15;;;10.90;98.20;;;;;;5011631;28;20042;-72
2023/01/09 13:02:40;;;;;;;3.72;0.65;;;10.90;98.30;;;;;;5011218;28;20042;-74
2023/01/09 13:05:16;;;;;;;6.20;1.27;;;10.90;98.20;;;;;;5011021;28;20614;-72
2023/01/09 13:07:58;;;;;;;5.88;1.13;;;10.80;98.10;;;;;;5011425;28;20033;-72
2023/01/09 13:10:35;;;;;;;4.53;1.00;;;10.90;98.10;;;;;;5011350;28;20037;-71
2023/01/09 13:13:09;;;;;;;6.33;1.40;;;10.90;97.90;;;;;;5011235;28;20052;-72
2023/01/09 13:15:40;;;;;;;2.78;0.90;;;10.90;97.90;;;;;;5010400;28;20586;-71
2023/01/09 13:18:20;;;;;;;2.22;1.00;;;10.90;97.90;;;;;;5012004;28;20040;-71
2023/01/09 13:20:55;;;;;;;2.30;0.77;;;10.80;97.60;;;;;;5010624;28;20038;-72
2023/01/09 13:23:39;;;;;;;3.22;0.85;;;10.90;98.00;;;;;;5010182;28;20464;-70